LSNO2: Neosho River nr Langley (Spillway)

Data processed at Fri Jan 05 2018 23:12


All information presented herein is the property of the government of the United States of America and may be revised or deleted at any time without prior notice.
Dissemination of this information without the expressed written consent of the Public Affairs Office, Tulsa District U.S. Army Corps of Engineers is strictly prohibited.
These data are gathered electronically and, as presented, have not undergone any form of quality control. These data are not guaranteed to be valid or correct.
Go to home page.
Go to station list.

Upstream stations:

Downstream station:
Previous Day
Next Day
Current Day
    
SHEF ID:       LSNO2     Neosho River (spillway) near Lan
STATION TYPE:  

                STAGE  RIV-FLOW  BAT-LOAD
                   ft       cfs      volt
              Ccp-Rev   Ccp-Rev   Ccp-Rev
(US/Central)
01/03 00:00     12.84     15780     12.33
01/03 01:00     12.97     16365     12.33
01/03 02:00     12.88     15960     12.33
01/03 03:00     12.78     15510     12.33
01/03 04:00     12.65     14925     12.33
01/03 05:00     12.70     15150     12.33
01/03 06:00     12.73     15285     12.33
01/03 07:00     12.52     14340     12.33
01/03 08:00     12.60     14700     12.33
01/03 09:00     12.70     15150     12.41
01/03 10:00     12.63     14835     12.89
01/03 11:00     12.56     14520     13.21
01/03 12:00     12.54     14430     12.97
01/03 13:00     12.62     14790     13.29
01/03 14:00     12.64     14880     13.29
01/03 15:00     12.60     14700     13.29
01/03 16:00     12.59     14655     13.21
01/03 17:00     12.65     14925     13.05
01/03 18:00     12.60     14700     12.89
01/03 19:00     12.64     14880     12.81
01/03 20:00     12.65     14925     12.81
01/03 21:00     12.60     14700     12.73
01/03 22:00     12.66     14970     12.73
01/03 23:00     12.60     14700     12.73